Crystal Lake, IL (60014)

7:54 PM CDT on July 03, 2015 (GMT -0500)
City Hall | | Change Station
CLOSE
Current Station
Personal Weather Station
Location: Crystal Lake, IL
Elevation: 927 ft
Nearby Weather Stations

Elev 927 ft 42.25 °N, 88.32 °W | Updated 1 minute ago

Partly Cloudy
Partly Cloudy
71.6 °F
Feels Like 77 °F
N
5.1
Wind Variable Wind from SSE
Gusts 7.7 mph

Today
High -- | Low -- °F
--% Chance of Precip.
Yesterday
High -- | Low -- °F
Precip. -- in
5:21 AM 8:33 PM
Waning Gibbous, 95% visible
Pressure 29.90 in
Visibility 10.0 miles
Clouds Mostly Cloudy 4900 ft
Heat Index 77 °F
Dew Point 55 °F
Humidity 55%
Rainfall 0.00 in
Snow Depth Not available.
UV 1 out of 12
Pollen 3.70 out of 12
Air Quality Not available.
Flu Activity Not available.
METAR KDPA 032352Z 36004KT 10SM BKN049 24/13 A2991 RMK AO2 SLP125 T02440133 10256 20233 56007

More Conditions Fewer Conditions

Pressure 29.90 in
Visibility 10.0 miles
Clouds Mostly Cloudy 4900 ft
Heat Index 77 °F
Dew Point 55 °F
Humidity 55%
Rainfall 0.00 in
Snow Depth Not available.
UV 1 out of 12
Pollen 3.70 out of 12
Air Quality Not available.
Flu Activity Not available.
METAR KDPA 032352Z 36004KT 10SM BKN049 24/13 A2991 RMK AO2 SLP125 T02440133 10256 20233 56007

More Conditions Fewer Conditions

10-Day Weather Forecast

×

Almanac

Astronomy

Jul. 03, 2015 Rise Set
Actual Time
Civil Twilight
Nautical Twilight
Astronomical Twilight
Moon
Length of Visible Light
Length of Day
Tomorrow will be .
, % of the Moon is Illuminated

Today's Extremes

State Highs State Lows

Community

WunderPhotos

Upload Photos

1,834,834 photos uploaded!

WunderBlogs® & News

Nearby

Air Quality

  Air Quality AQ Index Pollutant
Not available.

Snow Depth

Station Depth Elevation

Earthquake Activity

City Distance Mag. Time & Date
Minimum magnitude displayed is 2.5.

Coastal Water Temperatures

Place Temperature

Stations

Nearby Weather Stations

Station Location Temp. Windchill Dew Point Humidity Wind Precip. Elev Updated Type